Metar - Laupheim Airfield

[Source: ADDS]
METAR
ETHL 141220Z 05008KT 9999 OVC012 M03/M05 Q1017 GRN =
AMD ETHL 141029Z 1409/1418 07007KT 9999 NSW OVC010 CANCEL 1100
TAF
AMD ETHL 141029Z 1409/1418 07007KT 9999 NSW OVC010 CANCEL 1100 =

Notice: Undefined index: sun in /homepages/1/d158740339/htdocs/joomla/modules/mod_wx/tmpl/default.php on line 13

Metar - Augsburg Airfield

[Source: ADDS]
METAR
EDMA 141250Z 07005KT 9999 OVC015 M02/M05 Q1018 =
EDMA 141100Z 1412/1421 06007KT 9999 OVC014 TEMPO 1412/1416 BKN015
TAF
EDMA 141100Z 1412/1421 06007KT 9999 OVC014 TEMPO 1412/1416 BKN015 =
SR / SS: 07:02 / 15:25 UTC (Günzburg 2018-12-14)

Metar - Memmingen Airfield

[Source: ADDS]
METAR
EDJA 141250Z 05008KT 9999 OVC015 M03/M06 Q1016 =
EDJA 141100Z 1412/1421 06008KT 9999 OVC014 TEMPO 1412/1415 BKN015
TAF
EDJA 141100Z 1412/1421 06008KT 9999 OVC014 TEMPO 1412/1415 BKN015 =

Notice: Undefined index: sun in /homepages/1/d158740339/htdocs/joomla/modules/mod_wx/tmpl/default.php on line 13

Metar - Neuburg/Donau Airfield

[Source: ADDS]
METAR
ETSN 141220Z 09006KT 9999 FEW015 OVC019 M01/M06 Q1019 WHT =
ETSN 141115Z 1412/1421 08008KT 9999 NSW BKN020 PROB30 1412/1421 05012KT 7000 SG BKN012 BY ETGL
TAF
ETSN 141115Z 1412/1421 08008KT 9999 NSW BKN020 PROB30 1412/1421 05012KT 7000 SG BKN012 BY ETGL =

Notice: Undefined index: sun in /homepages/1/d158740339/htdocs/joomla/modules/mod_wx/tmpl/default.php on line 13

Metar - Stuttgart Airfield

[Source: ADDS]
METAR
EDDS 141250Z 07008KT 9999 -SHSN BKN021 M01/M06 Q1018 NOSIG =
EDDS 141100Z 1412/1512 08008KT 9999 BKN025 BECMG 1416/1418 08003KT
TAF
EDDS 141100Z 1412/1512 08008KT 9999 BKN025 BECMG 1416/1418 08003KT =

Notice: Undefined index: sun in /homepages/1/d158740339/htdocs/joomla/modules/mod_wx/tmpl/default.php on line 13

Metar - Niederstetten Airfield

[Source: ADDS]
METAR
ETHN 141220Z 10009KT 9999 OVC018 M02/M06 Q1018 WHT =
AMD ETHN 141041Z 1409/1418 08010KT 9999 NSW OVC020 CANCEL 1100
TAF
AMD ETHN 141041Z 1409/1418 08010KT 9999 NSW OVC020 CANCEL 1100 =

Notice: Undefined index: sun in /homepages/1/d158740339/htdocs/joomla/modules/mod_wx/tmpl/default.php on line 13